sensor_id;sensor_type;location;lat;lon;timestamp;P1;durP1;ratioP1;P2;durP2;ratioP2
20298;SDS011;10308;42.688;23.256;2024-02-16T00:00:18;15.60;;;14.20;;
20298;SDS011;10308;42.688;23.256;2024-02-16T00:02:49;15.52;;;14.13;;
20298;SDS011;10308;42.688;23.256;2024-02-16T00:05:18;15.43;;;13.80;;
20298;SDS011;10308;42.688;23.256;2024-02-16T00:07:46;19.00;;;17.00;;
20298;SDS011;10308;42.688;23.256;2024-02-16T00:10:13;19.30;;;17.42;;
20298;SDS011;10308;42.688;23.256;2024-02-16T00:12:45;19.63;;;17.77;;
20298;SDS011;10308;42.688;23.256;2024-02-16T00:15:12;19.55;;;17.55;;
20298;SDS011;10308;42.688;23.256;2024-02-16T00:17:42;17.90;;;16.05;;
20298;SDS011;10308;42.688;23.256;2024-02-16T00:20:09;18.42;;;16.52;;
20298;SDS011;10308;42.688;23.256;2024-02-16T00:22:38;19.17;;;17.27;;
20298;SDS011;10308;42.688;23.256;2024-02-16T00:25:06;18.50;;;16.70;;
20298;SDS011;10308;42.688;23.256;2024-02-16T00:27:37;19.15;;;17.27;;
20298;SDS011;10308;42.688;23.256;2024-02-16T00:30:06;18.98;;;17.05;;
20298;SDS011;10308;42.688;23.256;2024-02-16T00:32:36;18.75;;;16.92;;
20298;SDS011;10308;42.688;23.256;2024-02-16T00:35:07;18.92;;;17.10;;
20298;SDS011;10308;42.688;23.256;2024-02-16T00:37:37;18.60;;;16.85;;
20298;SDS011;10308;42.688;23.256;2024-02-16T00:40:05;17.90;;;16.17;;
20298;SDS011;10308;42.688;23.256;2024-02-16T00:42:34;17.98;;;16.15;;
20298;SDS011;10308;42.688;23.256;2024-02-16T00:45:01;16.33;;;14.77;;
20298;SDS011;10308;42.688;23.256;2024-02-16T00:47:31;17.17;;;15.52;;
20298;SDS011;10308;42.688;23.256;2024-02-16T00:49:58;16.95;;;15.32;;
20298;SDS011;10308;42.688;23.256;2024-02-16T00:52:28;17.02;;;15.38;;
20298;SDS011;10308;42.688;23.256;2024-02-16T00:54:55;14.05;;;12.65;;
20298;SDS011;10308;42.688;23.256;2024-02-16T00:57:24;15.38;;;13.88;;
20298;SDS011;10308;42.688;23.256;2024-02-16T00:59:51;16.20;;;14.60;;
20298;SDS011;10308;42.688;23.256;2024-02-16T01:02:19;16.30;;;14.80;;
20298;SDS011;10308;42.688;23.256;2024-02-16T01:04:47;13.95;;;12.65;;
20298;SDS011;10308;42.688;23.256;2024-02-16T01:07:16;14.65;;;13.27;;
20298;SDS011;10308;42.688;23.256;2024-02-16T01:09:45;14.90;;;13.45;;
20298;SDS011;10308;42.688;23.256;2024-02-16T01:12:16;14.95;;;13.45;;
20298;SDS011;10308;42.688;23.256;2024-02-16T01:14:43;15.73;;;14.23;;
20298;SDS011;10308;42.688;23.256;2024-02-16T01:17:13;14.52;;;13.07;;
20298;SDS011;10308;42.688;23.256;2024-02-16T01:19:41;14.48;;;13.18;;
20298;SDS011;10308;42.688;23.256;2024-02-16T01:22:09;15.35;;;13.90;;
20298;SDS011;10308;42.688;23.256;2024-02-16T01:24:36;14.57;;;13.25;;
20298;SDS011;10308;42.688;23.256;2024-02-16T01:27:06;12.82;;;11.60;;
20298;SDS011;10308;42.688;23.256;2024-02-16T01:29:34;11.70;;;10.70;;
20298;SDS011;10308;42.688;23.256;2024-02-16T01:32:02;13.35;;;12.05;;
20298;SDS011;10308;42.688;23.256;2024-02-16T01:34:29;12.85;;;11.63;;
20298;SDS011;10308;42.688;23.256;2024-02-16T01:36:58;12.63;;;11.48;;
20298;SDS011;10308;42.688;23.256;2024-02-16T01:39:25;13.65;;;12.30;;
20298;SDS011;10308;42.688;23.256;2024-02-16T01:41:53;13.48;;;12.18;;
20298;SDS011;10308;42.688;23.256;2024-02-16T01:44:22;12.63;;;11.52;;
20298;SDS011;10308;42.688;23.256;2024-02-16T01:46:49;13.13;;;12.02;;
20298;SDS011;10308;42.688;23.256;2024-02-16T01:49:16;11.23;;;10.27;;
20298;SDS011;10308;42.688;23.256;2024-02-16T01:51:44;11.88;;;10.77;;
20298;SDS011;10308;42.688;23.256;2024-02-16T01:54:11;11.95;;;10.90;;
20298;SDS011;10308;42.688;23.256;2024-02-16T01:56:39;11.60;;;10.52;;
20298;SDS011;10308;42.688;23.256;2024-02-16T01:59:06;11.50;;;10.50;;
20298;SDS011;10308;42.688;23.256;2024-02-16T02:01:36;11.98;;;10.80;;
20298;SDS011;10308;42.688;23.256;2024-02-16T02:04:03;11.93;;;10.75;;
20298;SDS011;10308;42.688;23.256;2024-02-16T02:06:32;12.77;;;11.57;;
20298;SDS011;10308;42.688;23.256;2024-02-16T02:09:00;12.23;;;11.07;;
20298;SDS011;10308;42.688;23.256;2024-02-16T02:11:30;12.32;;;11.25;;
20298;SDS011;10308;42.688;23.256;2024-02-16T02:13:58;12.43;;;11.23;;
20298;SDS011;10308;42.688;23.256;2024-02-16T02:16:26;12.07;;;11.07;;
20298;SDS011;10308;42.688;23.256;2024-02-16T02:18:55;12.18;;;11.02;;
20298;SDS011;10308;42.688;23.256;2024-02-16T02:21:23;12.23;;;11.07;;
20298;SDS011;10308;42.688;23.256;2024-02-16T02:23:51;12.55;;;11.45;;
20298;SDS011;10308;42.688;23.256;2024-02-16T02:26:20;11.60;;;10.57;;
20298;SDS011;10308;42.688;23.256;2024-02-16T02:28:48;12.52;;;11.27;;
20298;SDS011;10308;42.688;23.256;2024-02-16T02:31:16;10.77;;;9.68;;
20298;SDS011;10308;42.688;23.256;2024-02-16T02:33:43;11.20;;;10.20;;
20298;SDS011;10308;42.688;23.256;2024-02-16T02:36:10;11.32;;;10.32;;
20298;SDS011;10308;42.688;23.256;2024-02-16T02:38:37;10.98;;;9.98;;
20298;SDS011;10308;42.688;23.256;2024-02-16T02:41:07;11.73;;;10.63;;
20298;SDS011;10308;42.688;23.256;2024-02-16T02:43:34;11.35;;;10.23;;
20298;SDS011;10308;42.688;23.256;2024-02-16T02:46:02;10.77;;;9.88;;
20298;SDS011;10308;42.688;23.256;2024-02-16T02:48:30;11.45;;;10.38;;
20298;SDS011;10308;42.688;23.256;2024-02-16T02:50:58;10.52;;;9.70;;
20298;SDS011;10308;42.688;23.256;2024-02-16T02:53:27;11.57;;;10.40;;
20298;SDS011;10308;42.688;23.256;2024-02-16T02:55:56;11.35;;;10.35;;
20298;SDS011;10308;42.688;23.256;2024-02-16T02:58:27;11.77;;;10.70;;
20298;SDS011;10308;42.688;23.256;2024-02-16T03:00:58;10.93;;;9.93;;
20298;SDS011;10308;42.688;23.256;2024-02-16T03:03:25;11.38;;;10.27;;
20298;SDS011;10308;42.688;23.256;2024-02-16T03:05:53;11.23;;;10.07;;
20298;SDS011;10308;42.688;23.256;2024-02-16T03:08:20;11.38;;;10.27;;
20298;SDS011;10308;42.688;23.256;2024-02-16T03:10:48;11.13;;;10.23;;
20298;SDS011;10308;42.688;23.256;2024-02-16T03:13:15;11.52;;;10.52;;
20298;SDS011;10308;42.688;23.256;2024-02-16T03:15:46;11.55;;;10.45;;
20298;SDS011;10308;42.688;23.256;2024-02-16T03:18:13;11.82;;;10.70;;
20298;SDS011;10308;42.688;23.256;2024-02-16T03:20:41;12.15;;;10.60;;
20298;SDS011;10308;42.688;23.256;2024-02-16T03:23:14;15.45;;;13.85;;
20298;SDS011;10308;42.688;23.256;2024-02-16T03:25:41;15.15;;;13.02;;
20298;SDS011;10308;42.688;23.256;2024-02-16T03:28:09;11.38;;;10.20;;
20298;SDS011;10308;42.688;23.256;2024-02-16T03:30:38;10.52;;;9.63;;
20298;SDS011;10308;42.688;23.256;2024-02-16T03:33:07;11.45;;;10.35;;
20298;SDS011;10308;42.688;23.256;2024-02-16T03:35:36;15.10;;;13.60;;
20298;SDS011;10308;42.688;23.256;2024-02-16T03:38:03;15.80;;;14.13;;
20298;SDS011;10308;42.688;23.256;2024-02-16T03:40:32;15.73;;;14.10;;
20298;SDS011;10308;42.688;23.256;2024-02-16T03:42:59;20.30;;;15.27;;
20298;SDS011;10308;42.688;23.256;2024-02-16T03:45:26;16.40;;;14.70;;
20298;SDS011;10308;42.688;23.256;2024-02-16T03:47:54;14.95;;;13.32;;
20298;SDS011;10308;42.688;23.256;2024-02-16T03:50:23;15.07;;;13.48;;
20298;SDS011;10308;42.688;23.256;2024-02-16T03:52:51;13.40;;;12.00;;
20298;SDS011;10308;42.688;23.256;2024-02-16T03:55:18;14.98;;;13.40;;
20298;SDS011;10308;42.688;23.256;2024-02-16T03:57:47;14.15;;;12.70;;
20298;SDS011;10308;42.688;23.256;2024-02-16T04:00:16;15.48;;;13.73;;
20298;SDS011;10308;42.688;23.256;2024-02-16T04:02:46;15.35;;;13.80;;
20298;SDS011;10308;42.688;23.256;2024-02-16T04:05:13;13.13;;;11.82;;
20298;SDS011;10308;42.688;23.256;2024-02-16T04:07:48;14.27;;;12.52;;
20298;SDS011;10308;42.688;23.256;2024-02-16T04:10:15;14.00;;;12.10;;
20298;SDS011;10308;42.688;23.256;2024-02-16T04:12:43;13.25;;;12.00;;
20298;SDS011;10308;42.688;23.256;2024-02-16T04:15:11;13.25;;;12.00;;
20298;SDS011;10308;42.688;23.256;2024-02-16T04:17:40;13.27;;;11.88;;
20298;SDS011;10308;42.688;23.256;2024-02-16T04:20:07;12.77;;;11.43;;
20298;SDS011;10308;42.688;23.256;2024-02-16T04:22:35;15.63;;;11.18;;
20298;SDS011;10308;42.688;23.256;2024-02-16T04:25:05;12.02;;;10.65;;
20298;SDS011;10308;42.688;23.256;2024-02-16T04:27:33;12.90;;;11.60;;
20298;SDS011;10308;42.688;23.256;2024-02-16T04:30:01;12.85;;;11.32;;
20298;SDS011;10308;42.688;23.256;2024-02-16T04:32:30;12.25;;;11.05;;
20298;SDS011;10308;42.688;23.256;2024-02-16T04:34:58;12.80;;;10.65;;
20298;SDS011;10308;42.688;23.256;2024-02-16T04:37:26;12.07;;;10.30;;
20298;SDS011;10308;42.688;23.256;2024-02-16T04:39:53;14.15;;;10.75;;
20298;SDS011;10308;42.688;23.256;2024-02-16T04:42:23;14.00;;;12.68;;
20298;SDS011;10308;42.688;23.256;2024-02-16T04:44:50;14.10;;;12.80;;
20298;SDS011;10308;42.688;23.256;2024-02-16T04:47:17;14.48;;;12.90;;
20298;SDS011;10308;42.688;23.256;2024-02-16T04:49:44;14.43;;;12.35;;
20298;SDS011;10308;42.688;23.256;2024-02-16T04:52:14;12.57;;;11.27;;
20298;SDS011;10308;42.688;23.256;2024-02-16T04:54:44;12.38;;;11.27;;
20298;SDS011;10308;42.688;23.256;2024-02-16T04:57:11;13.82;;;11.75;;
20298;SDS011;10308;42.688;23.256;2024-02-16T04:59:41;12.88;;;11.45;;
20298;SDS011;10308;42.688;23.256;2024-02-16T05:02:08;12.60;;;11.40;;
20298;SDS011;10308;42.688;23.256;2024-02-16T05:04:36;14.60;;;11.30;;
20298;SDS011;10308;42.688;23.256;2024-02-16T05:09:32;12.20;;;11.10;;
20298;SDS011;10308;42.688;23.256;2024-02-16T05:11:59;15.15;;;12.73;;
20298;SDS011;10308;42.688;23.256;2024-02-16T05:14:28;14.57;;;13.23;;
20298;SDS011;10308;42.688;23.256;2024-02-16T05:16:57;17.45;;;15.70;;
20298;SDS011;10308;42.688;23.256;2024-02-16T05:19:26;16.17;;;14.57;;
20298;SDS011;10308;42.688;23.256;2024-02-16T05:21:53;15.45;;;13.95;;
20298;SDS011;10308;42.688;23.256;2024-02-16T05:24:21;15.05;;;13.57;;
20298;SDS011;10308;42.688;23.256;2024-02-16T05:26:49;14.05;;;12.65;;
20298;SDS011;10308;42.688;23.256;2024-02-16T05:29:18;15.45;;;13.90;;
20298;SDS011;10308;42.688;23.256;2024-02-16T05:31:45;15.98;;;14.38;;
20298;SDS011;10308;42.688;23.256;2024-02-16T05:34:16;17.52;;;15.68;;
20298;SDS011;10308;42.688;23.256;2024-02-16T05:36:44;17.25;;;15.60;;
20298;SDS011;10308;42.688;23.256;2024-02-16T05:39:12;19.13;;;16.25;;
20298;SDS011;10308;42.688;23.256;2024-02-16T05:41:52;17.65;;;15.82;;
20298;SDS011;10308;42.688;23.256;2024-02-16T05:44:20;16.65;;;14.55;;
20298;SDS011;10308;42.688;23.256;2024-02-16T05:46:47;17.42;;;15.77;;
20298;SDS011;10308;42.688;23.256;2024-02-16T05:49:20;24.38;;;20.05;;
20298;SDS011;10308;42.688;23.256;2024-02-16T05:51:47;20.75;;;17.30;;
20298;SDS011;10308;42.688;23.256;2024-02-16T05:54:44;20.95;;;18.95;;
20298;SDS011;10308;42.688;23.256;2024-02-16T05:57:12;18.80;;;17.23;;
20298;SDS011;10308;42.688;23.256;2024-02-16T05:59:41;27.33;;;24.92;;
20298;SDS011;10308;42.688;23.256;2024-02-16T06:02:08;24.50;;;22.17;;
20298;SDS011;10308;42.688;23.256;2024-02-16T06:04:38;25.48;;;22.85;;
20298;SDS011;10308;42.688;23.256;2024-02-16T06:07:06;24.58;;;22.48;;
20298;SDS011;10308;42.688;23.256;2024-02-16T06:09:34;25.48;;;23.17;;
20298;SDS011;10308;42.688;23.256;2024-02-16T06:12:02;27.48;;;24.77;;
20298;SDS011;10308;42.688;23.256;2024-02-16T06:14:34;27.67;;;25.00;;
20298;SDS011;10308;42.688;23.256;2024-02-16T06:17:05;27.00;;;24.02;;
20298;SDS011;10308;42.688;23.256;2024-02-16T06:19:34;25.60;;;21.98;;
20298;SDS011;10308;42.688;23.256;2024-02-16T06:22:04;29.77;;;22.80;;
20298;SDS011;10308;42.688;23.256;2024-02-16T06:24:33;26.38;;;23.50;;
20298;SDS011;10308;42.688;23.256;2024-02-16T06:27:01;28.63;;;25.77;;
20298;SDS011;10308;42.688;23.256;2024-02-16T06:29:29;27.65;;;24.85;;
20298;SDS011;10308;42.688;23.256;2024-02-16T06:31:57;28.25;;;25.17;;
20298;SDS011;10308;42.688;23.256;2024-02-16T06:34:24;30.55;;;27.63;;
20298;SDS011;10308;42.688;23.256;2024-02-16T06:36:53;31.02;;;27.92;;
20298;SDS011;10308;42.688;23.256;2024-02-16T06:39:21;31.55;;;28.52;;
20298;SDS011;10308;42.688;23.256;2024-02-16T06:41:49;34.03;;;30.80;;
20298;SDS011;10308;42.688;23.256;2024-02-16T06:44:16;32.65;;;29.27;;
20298;SDS011;10308;42.688;23.256;2024-02-16T06:46:44;34.97;;;31.70;;
20298;SDS011;10308;42.688;23.256;2024-02-16T06:49:11;36.90;;;33.28;;
20298;SDS011;10308;42.688;23.256;2024-02-16T06:51:40;37.33;;;33.55;;
20298;SDS011;10308;42.688;23.256;2024-02-16T06:54:07;33.25;;;29.92;;
20298;SDS011;10308;42.688;23.256;2024-02-16T06:56:37;32.10;;;29.00;;
20298;SDS011;10308;42.688;23.256;2024-02-16T06:59:07;30.40;;;27.52;;
20298;SDS011;10308;42.688;23.256;2024-02-16T07:01:35;28.90;;;26.10;;
20298;SDS011;10308;42.688;23.256;2024-02-16T07:04:02;27.70;;;25.00;;
20298;SDS011;10308;42.688;23.256;2024-02-16T07:06:32;26.77;;;24.15;;
20298;SDS011;10308;42.688;23.256;2024-02-16T07:08:59;25.98;;;23.38;;
20298;SDS011;10308;42.688;23.256;2024-02-16T07:11:28;26.15;;;23.63;;
20298;SDS011;10308;42.688;23.256;2024-02-16T07:13:57;23.95;;;21.20;;
20298;SDS011;10308;42.688;23.256;2024-02-16T07:16:28;22.10;;;19.92;;
20298;SDS011;10308;42.688;23.256;2024-02-16T07:18:58;19.55;;;17.63;;
20298;SDS011;10308;42.688;23.256;2024-02-16T07:21:26;18.17;;;16.48;;
20298;SDS011;10308;42.688;23.256;2024-02-16T07:23:53;14.57;;;13.18;;
20298;SDS011;10308;42.688;23.256;2024-02-16T07:26:21;14.18;;;12.88;;
20298;SDS011;10308;42.688;23.256;2024-02-16T07:28:50;14.18;;;12.98;;
20298;SDS011;10308;42.688;23.256;2024-02-16T07:31:20;13.85;;;12.52;;
20298;SDS011;10308;42.688;23.256;2024-02-16T07:33:47;13.27;;;11.93;;
20298;SDS011;10308;42.688;23.256;2024-02-16T07:36:16;13.43;;;12.23;;
20298;SDS011;10308;42.688;23.256;2024-02-16T07:38:44;13.05;;;11.80;;
20298;SDS011;10308;42.688;23.256;2024-02-16T07:41:13;12.02;;;10.88;;
20298;SDS011;10308;42.688;23.256;2024-02-16T07:43:40;12.20;;;11.00;;
20298;SDS011;10308;42.688;23.256;2024-02-16T07:46:08;12.57;;;11.30;;
20298;SDS011;10308;42.688;23.256;2024-02-16T07:48:39;12.00;;;10.80;;
20298;SDS011;10308;42.688;23.256;2024-02-16T07:51:07;11.73;;;9.93;;
20298;SDS011;10308;42.688;23.256;2024-02-16T07:53:35;11.10;;;10.15;;
20298;SDS011;10308;42.688;23.256;2024-02-16T07:56:03;10.65;;;9.68;;
20298;SDS011;10308;42.688;23.256;2024-02-16T07:58:30;12.45;;;11.25;;
20298;SDS011;10308;42.688;23.256;2024-02-16T08:00:58;12.13;;;11.02;;
20298;SDS011;10308;42.688;23.256;2024-02-16T08:03:25;14.85;;;13.50;;
20298;SDS011;10308;42.688;23.256;2024-02-16T08:05:54;13.70;;;12.40;;
20298;SDS011;10308;42.688;23.256;2024-02-16T08:08:21;16.02;;;14.43;;
20298;SDS011;10308;42.688;23.256;2024-02-16T08:10:52;15.65;;;14.18;;
20298;SDS011;10308;42.688;23.256;2024-02-16T08:13:20;15.32;;;13.80;;
20298;SDS011;10308;42.688;23.256;2024-02-16T08:15:49;18.23;;;16.70;;
20298;SDS011;10308;42.688;23.256;2024-02-16T08:18:17;25.27;;;22.85;;
20298;SDS011;10308;42.688;23.256;2024-02-16T08:20:46;27.42;;;24.70;;
20298;SDS011;10308;42.688;23.256;2024-02-16T08:23:15;23.05;;;20.80;;
20298;SDS011;10308;42.688;23.256;2024-02-16T08:25:43;19.85;;;17.88;;
20298;SDS011;10308;42.688;23.256;2024-02-16T08:28:10;14.05;;;12.75;;
20298;SDS011;10308;42.688;23.256;2024-02-16T08:30:39;13.30;;;11.98;;
20298;SDS011;10308;42.688;23.256;2024-02-16T08:33:06;13.27;;;12.10;;
20298;SDS011;10308;42.688;23.256;2024-02-16T08:35:35;14.10;;;12.85;;
20298;SDS011;10308;42.688;23.256;2024-02-16T08:38:03;16.20;;;14.65;;
20298;SDS011;10308;42.688;23.256;2024-02-16T08:40:39;16.25;;;14.57;;
20298;SDS011;10308;42.688;23.256;2024-02-16T08:43:07;14.50;;;13.30;;
20298;SDS011;10308;42.688;23.256;2024-02-16T08:45:35;17.60;;;15.90;;
20298;SDS011;10308;42.688;23.256;2024-02-16T08:48:03;17.50;;;15.70;;
20298;SDS011;10308;42.688;23.256;2024-02-16T08:50:31;16.08;;;14.57;;
20298;SDS011;10308;42.688;23.256;2024-02-16T08:52:58;15.35;;;13.85;;
20298;SDS011;10308;42.688;23.256;2024-02-16T08:55:27;16.75;;;15.05;;
20298;SDS011;10308;42.688;23.256;2024-02-16T08:57:58;15.82;;;14.32;;
20298;SDS011;10308;42.688;23.256;2024-02-16T09:00:32;11.68;;;10.57;;
20298;SDS011;10308;42.688;23.256;2024-02-16T09:03:00;13.98;;;12.48;;
20298;SDS011;10308;42.688;23.256;2024-02-16T09:05:32;14.60;;;13.10;;
20298;SDS011;10308;42.688;23.256;2024-02-16T09:08:02;14.15;;;12.88;;
20298;SDS011;10308;42.688;23.256;2024-02-16T09:10:32;12.13;;;10.95;;
20298;SDS011;10308;42.688;23.256;2024-02-16T09:13:01;14.60;;;13.30;;
20298;SDS011;10308;42.688;23.256;2024-02-16T09:15:32;11.57;;;10.38;;
20298;SDS011;10308;42.688;23.256;2024-02-16T09:18:00;11.43;;;10.35;;
20298;SDS011;10308;42.688;23.256;2024-02-16T09:20:27;9.55;;;8.55;;
20298;SDS011;10308;42.688;23.256;2024-02-16T09:22:54;12.02;;;10.93;;
20298;SDS011;10308;42.688;23.256;2024-02-16T09:25:22;12.43;;;11.23;;
20298;SDS011;10308;42.688;23.256;2024-02-16T09:27:50;11.55;;;10.00;;
20298;SDS011;10308;42.688;23.256;2024-02-16T09:30:20;8.77;;;7.97;;
20298;SDS011;10308;42.688;23.256;2024-02-16T09:32:47;7.78;;;6.97;;
20298;SDS011;10308;42.688;23.256;2024-02-16T09:35:14;6.57;;;6.07;;
20298;SDS011;10308;42.688;23.256;2024-02-16T09:37:41;6.80;;;6.00;;
20298;SDS011;10308;42.688;23.256;2024-02-16T09:40:11;6.55;;;5.90;;
20298;SDS011;10308;42.688;23.256;2024-02-16T09:42:38;6.80;;;6.15;;
20298;SDS011;10308;42.688;23.256;2024-02-16T09:45:07;7.45;;;6.78;;
20298;SDS011;10308;42.688;23.256;2024-02-16T09:47:40;7.20;;;6.53;;
20298;SDS011;10308;42.688;23.256;2024-02-16T09:50:09;7.07;;;6.47;;
20298;SDS011;10308;42.688;23.256;2024-02-16T09:52:36;7.68;;;6.88;;
20298;SDS011;10308;42.688;23.256;2024-02-16T09:55:05;6.22;;;5.72;;
20298;SDS011;10308;42.688;23.256;2024-02-16T09:57:34;5.63;;;5.10;;
20298;SDS011;10308;42.688;23.256;2024-02-16T10:00:02;5.85;;;5.13;;
20298;SDS011;10308;42.688;23.256;2024-02-16T10:02:43;6.30;;;5.70;;
20298;SDS011;10308;42.688;23.256;2024-02-16T10:05:13;6.28;;;5.15;;
20298;SDS011;10308;42.688;23.256;2024-02-16T10:07:41;6.45;;;5.85;;
20298;SDS011;10308;42.688;23.256;2024-02-16T10:10:19;5.47;;;4.90;;
20298;SDS011;10308;42.688;23.256;2024-02-16T10:12:47;5.80;;;5.30;;
20298;SDS011;10308;42.688;23.256;2024-02-16T10:15:20;6.15;;;5.38;;
20298;SDS011;10308;42.688;23.256;2024-02-16T10:17:58;5.50;;;5.00;;
20298;SDS011;10308;42.688;23.256;2024-02-16T10:20:27;5.40;;;5.00;;
20298;SDS011;10308;42.688;23.256;2024-02-16T10:23:05;5.32;;;4.90;;
20298;SDS011;10308;42.688;23.256;2024-02-16T10:25:36;4.25;;;3.95;;
20298;SDS011;10308;42.688;23.256;2024-02-16T10:28:05;4.60;;;4.22;;
20298;SDS011;10308;42.688;23.256;2024-02-16T10:30:35;4.45;;;4.15;;
20298;SDS011;10308;42.688;23.256;2024-02-16T10:33:06;5.25;;;4.82;;
20298;SDS011;10308;42.688;23.256;2024-02-16T10:35:37;5.10;;;4.70;;
20298;SDS011;10308;42.688;23.256;2024-02-16T10:38:07;5.40;;;5.00;;
20298;SDS011;10308;42.688;23.256;2024-02-16T10:40:38;5.70;;;5.28;;
20298;SDS011;10308;42.688;23.256;2024-02-16T10:43:07;5.80;;;5.22;;
20298;SDS011;10308;42.688;23.256;2024-02-16T10:45:36;5.85;;;5.35;;
20298;SDS011;10308;42.688;23.256;2024-02-16T10:48:04;5.88;;;5.38;;
20298;SDS011;10308;42.688;23.256;2024-02-16T10:50:34;6.40;;;5.80;;
20298;SDS011;10308;42.688;23.256;2024-02-16T10:53:03;6.90;;;6.30;;
20298;SDS011;10308;42.688;23.256;2024-02-16T10:55:32;6.75;;;6.15;;
20298;SDS011;10308;42.688;23.256;2024-02-16T10:58:00;6.38;;;5.82;;
20298;SDS011;10308;42.688;23.256;2024-02-16T11:00:28;7.35;;;6.68;;
20298;SDS011;10308;42.688;23.256;2024-02-16T11:02:59;6.60;;;6.13;;
20298;SDS011;10308;42.688;23.256;2024-02-16T11:05:35;6.03;;;5.53;;
20298;SDS011;10308;42.688;23.256;2024-02-16T11:08:03;6.32;;;5.82;;
20298;SDS011;10308;42.688;23.256;2024-02-16T11:10:32;5.75;;;5.20;;
20298;SDS011;10308;42.688;23.256;2024-02-16T11:13:02;6.13;;;5.53;;
20298;SDS011;10308;42.688;23.256;2024-02-16T11:15:32;6.32;;;5.72;;
20298;SDS011;10308;42.688;23.256;2024-02-16T11:18:00;7.15;;;6.55;;
20298;SDS011;10308;42.688;23.256;2024-02-16T11:20:29;7.00;;;6.43;;
20298;SDS011;10308;42.688;23.256;2024-02-16T11:23:08;7.13;;;6.43;;
20298;SDS011;10308;42.688;23.256;2024-02-16T11:25:36;6.53;;;5.95;;
20298;SDS011;10308;42.688;23.256;2024-02-16T11:28:04;6.78;;;5.97;;
20298;SDS011;10308;42.688;23.256;2024-02-16T11:30:33;6.85;;;6.03;;
20298;SDS011;10308;42.688;23.256;2024-02-16T11:33:04;7.68;;;6.03;;
20298;SDS011;10308;42.688;23.256;2024-02-16T11:35:33;7.03;;;6.35;;
20298;SDS011;10308;42.688;23.256;2024-02-16T11:38:01;5.88;;;5.38;;
20298;SDS011;10308;42.688;23.256;2024-02-16T11:40:29;5.72;;;5.13;;
20298;SDS011;10308;42.688;23.256;2024-02-16T11:42:59;5.70;;;5.10;;
20298;SDS011;10308;42.688;23.256;2024-02-16T11:45:33;7.40;;;5.93;;
20298;SDS011;10308;42.688;23.256;2024-02-16T11:48:05;6.68;;;5.95;;
20298;SDS011;10308;42.688;23.256;2024-02-16T11:50:34;6.63;;;5.97;;
20298;SDS011;10308;42.688;23.256;2024-02-16T11:53:04;6.10;;;5.50;;
20298;SDS011;10308;42.688;23.256;2024-02-16T11:55:35;6.00;;;5.50;;
20298;SDS011;10308;42.688;23.256;2024-02-16T11:58:02;5.50;;;5.05;;
20298;SDS011;10308;42.688;23.256;2024-02-16T12:00:31;6.47;;;5.88;;
20298;SDS011;10308;42.688;23.256;2024-02-16T12:02:59;6.28;;;5.78;;
20298;SDS011;10308;42.688;23.256;2024-02-16T12:05:28;5.97;;;5.47;;
20298;SDS011;10308;42.688;23.256;2024-02-16T12:07:57;5.93;;;5.30;;
20298;SDS011;10308;42.688;23.256;2024-02-16T12:10:30;6.28;;;5.65;;
20298;SDS011;10308;42.688;23.256;2024-02-16T12:12:59;10.45;;;6.32;;
20298;SDS011;10308;42.688;23.256;2024-02-16T12:15:27;6.60;;;5.50;;
20298;SDS011;10308;42.688;23.256;2024-02-16T12:17:58;6.28;;;5.72;;
20298;SDS011;10308;42.688;23.256;2024-02-16T12:20:27;6.50;;;5.72;;
20298;SDS011;10308;42.688;23.256;2024-02-16T12:22:55;6.15;;;5.45;;
20298;SDS011;10308;42.688;23.256;2024-02-16T12:25:23;5.90;;;5.40;;
20298;SDS011;10308;42.688;23.256;2024-02-16T12:27:52;6.05;;;5.55;;
20298;SDS011;10308;42.688;23.256;2024-02-16T12:30:20;6.47;;;5.88;;
20298;SDS011;10308;42.688;23.256;2024-02-16T12:32:47;6.32;;;5.80;;
20298;SDS011;10308;42.688;23.256;2024-02-16T12:35:15;6.50;;;5.90;;
20298;SDS011;10308;42.688;23.256;2024-02-16T12:37:42;6.18;;;5.50;;
20298;SDS011;10308;42.688;23.256;2024-02-16T12:40:14;5.72;;;5.20;;
20298;SDS011;10308;42.688;23.256;2024-02-16T12:42:41;5.60;;;5.20;;
20298;SDS011;10308;42.688;23.256;2024-02-16T12:45:11;5.40;;;4.93;;
20298;SDS011;10308;42.688;23.256;2024-02-16T12:47:38;7.03;;;5.28;;
20298;SDS011;10308;42.688;23.256;2024-02-16T12:50:06;5.07;;;4.65;;
20298;SDS011;10308;42.688;23.256;2024-02-16T12:52:33;5.50;;;5.00;;
20298;SDS011;10308;42.688;23.256;2024-02-16T12:55:06;5.97;;;5.32;;
20298;SDS011;10308;42.688;23.256;2024-02-16T12:57:36;6.13;;;4.95;;
20298;SDS011;10308;42.688;23.256;2024-02-16T13:00:04;6.05;;;5.53;;
20298;SDS011;10308;42.688;23.256;2024-02-16T13:02:35;5.90;;;5.40;;
20298;SDS011;10308;42.688;23.256;2024-02-16T13:05:04;5.20;;;4.70;;
20298;SDS011;10308;42.688;23.256;2024-02-16T13:07:31;6.63;;;5.38;;
20298;SDS011;10308;42.688;23.256;2024-02-16T13:09:59;5.30;;;4.82;;
20298;SDS011;10308;42.688;23.256;2024-02-16T13:12:28;5.32;;;4.82;;
20298;SDS011;10308;42.688;23.256;2024-02-16T13:14:56;5.47;;;4.60;;
20298;SDS011;10308;42.688;23.256;2024-02-16T13:17:24;5.32;;;4.82;;
20298;SDS011;10308;42.688;23.256;2024-02-16T13:19:54;5.00;;;4.60;;
20298;SDS011;10308;42.688;23.256;2024-02-16T13:22:29;5.35;;;4.60;;
20298;SDS011;10308;42.688;23.256;2024-02-16T13:24:57;5.03;;;4.53;;
20298;SDS011;10308;42.688;23.256;2024-02-16T13:27:24;8.02;;;4.60;;
20298;SDS011;10308;42.688;23.256;2024-02-16T13:29:52;5.60;;;4.35;;
20298;SDS011;10308;42.688;23.256;2024-02-16T13:32:19;4.43;;;4.03;;
20298;SDS011;10308;42.688;23.256;2024-02-16T13:34:48;5.00;;;4.60;;
20298;SDS011;10308;42.688;23.256;2024-02-16T13:37:17;4.93;;;4.53;;
20298;SDS011;10308;42.688;23.256;2024-02-16T13:39:48;5.15;;;4.70;;
20298;SDS011;10308;42.688;23.256;2024-02-16T13:42:18;5.30;;;4.90;;
20298;SDS011;10308;42.688;23.256;2024-02-16T13:44:46;5.15;;;4.65;;
20298;SDS011;10308;42.688;23.256;2024-02-16T13:47:13;4.95;;;4.55;;
20298;SDS011;10308;42.688;23.256;2024-02-16T13:49:41;4.72;;;4.32;;
20298;SDS011;10308;42.688;23.256;2024-02-16T13:52:08;5.28;;;4.78;;
20298;SDS011;10308;42.688;23.256;2024-02-16T13:54:39;5.72;;;5.22;;
20298;SDS011;10308;42.688;23.256;2024-02-16T13:57:06;6.00;;;4.57;;
20298;SDS011;10308;42.688;23.256;2024-02-16T13:59:35;4.70;;;4.30;;
20298;SDS011;10308;42.688;23.256;2024-02-16T14:02:02;4.65;;;4.25;;
20298;SDS011;10308;42.688;23.256;2024-02-16T14:04:31;5.45;;;5.00;;
20298;SDS011;10308;42.688;23.256;2024-02-16T14:06:58;5.40;;;4.90;;
20298;SDS011;10308;42.688;23.256;2024-02-16T14:09:26;5.10;;;4.55;;
20298;SDS011;10308;42.688;23.256;2024-02-16T14:11:55;5.68;;;4.43;;
20298;SDS011;10308;42.688;23.256;2024-02-16T14:14:25;4.22;;;3.83;;
20298;SDS011;10308;42.688;23.256;2024-02-16T14:16:52;4.75;;;4.30;;
20298;SDS011;10308;42.688;23.256;2024-02-16T14:19:24;5.85;;;4.63;;
20298;SDS011;10308;42.688;23.256;2024-02-16T14:21:51;4.65;;;4.25;;
20298;SDS011;10308;42.688;23.256;2024-02-16T14:24:19;5.05;;;4.57;;
20298;SDS011;10308;42.688;23.256;2024-02-16T14:26:47;5.22;;;4.35;;
20298;SDS011;10308;42.688;23.256;2024-02-16T14:29:16;5.20;;;4.53;;